createdAt,value
2018-06-15T00:00:53.996Z,4.27
2018-06-15T00:03:58.525Z,5.00
2018-06-15T00:07:03.259Z,4.30
2018-06-15T00:10:07.450Z,4.20
2018-06-15T00:13:11.675Z,3.90
2018-06-15T00:16:15.973Z,5.87
2018-06-15T00:19:20.191Z,4.40
2018-06-15T00:22:24.463Z,5.53
2018-06-15T00:25:28.620Z,5.13
2018-06-15T00:28:33.133Z,4.83
2018-06-15T00:31:37.618Z,4.80
2018-06-15T00:34:41.827Z,4.97
2018-06-15T00:37:45.869Z,5.00
2018-06-15T00:40:50.810Z,4.57
2018-06-15T00:43:54.770Z,5.13
2018-06-15T00:46:59.057Z,6.70
2018-06-15T00:50:03.323Z,4.73
2018-06-15T00:53:07.197Z,4.87
2018-06-15T00:56:11.340Z,4.60
2018-06-15T00:59:15.784Z,5.20
2018-06-15T01:02:20.806Z,4.63
2018-06-15T01:05:25.189Z,6.30
2018-06-15T01:08:29.679Z,4.90
2018-06-15T01:11:33.929Z,5.47
2018-06-15T01:14:38.207Z,6.97
2018-06-15T01:17:42.614Z,4.60
2018-06-15T01:20:46.958Z,4.97
2018-06-15T01:23:51.262Z,5.37
2018-06-15T01:26:55.593Z,4.17
2018-06-15T01:30:00.862Z,6.10
2018-06-15T01:33:05.170Z,5.17
2018-06-15T01:36:09.588Z,4.53
2018-06-15T01:39:13.900Z,4.97
2018-06-15T01:42:18.264Z,5.17
2018-06-15T01:45:22.774Z,5.50
2018-06-15T01:48:27.120Z,5.47
2018-06-15T01:51:31.172Z,5.07
2018-06-15T01:54:35.170Z,4.00
2018-06-15T01:57:39.514Z,4.70
2018-06-15T02:00:43.822Z,4.70
2018-06-15T02:03:48.350Z,5.30
2018-06-15T02:06:52.721Z,4.83
2018-06-15T02:09:57.106Z,4.67
2018-06-15T02:13:01.454Z,5.40
2018-06-15T02:16:05.792Z,4.43
2018-06-15T02:19:10.107Z,5.70
2018-06-15T02:22:14.446Z,13.60
2018-06-15T02:25:18.753Z,4.80
2018-06-15T02:28:23.300Z,4.90
2018-06-15T02:31:27.592Z,4.47
2018-06-15T02:34:32.121Z,4.40
2018-06-15T02:37:36.508Z,5.10
2018-06-15T02:40:40.863Z,4.63
2018-06-15T02:43:45.143Z,5.50
2018-06-15T02:46:49.257Z,4.63
2018-06-15T02:49:53.786Z,4.60
2018-06-15T02:52:58.272Z,5.00
2018-06-15T02:56:02.618Z,4.10
2018-06-15T02:59:06.973Z,7.90
2018-06-15T03:02:11.457Z,4.83
2018-06-15T03:05:15.959Z,4.13
2018-06-15T03:08:20.296Z,4.50
2018-06-15T03:11:24.364Z,4.50
2018-06-15T03:14:28.908Z,4.47
2018-06-15T03:17:33.229Z,3.87
2018-06-15T03:20:37.614Z,4.00
2018-06-15T03:23:41.870Z,4.67
2018-06-15T03:26:46.231Z,4.87
2018-06-15T03:29:50.511Z,4.23
2018-06-15T03:32:54.868Z,4.20
2018-06-15T03:35:59.198Z,4.50
2018-06-15T03:39:04.103Z,4.77
2018-06-15T03:42:08.318Z,5.90
2018-06-15T03:45:13.749Z,4.97
2018-06-15T03:48:18.159Z,5.07
2018-06-15T03:51:22.646Z,5.67
2018-06-15T03:54:27.306Z,4.70
2018-06-15T03:57:31.630Z,3.97
2018-06-15T04:00:36.047Z,4.40
2018-06-15T04:03:40.339Z,4.67
2018-06-15T04:06:44.398Z,4.60
2018-06-15T04:09:48.101Z,4.80
2018-06-15T04:12:52.442Z,4.70
2018-06-15T04:15:56.833Z,4.47
2018-06-15T04:19:00.990Z,4.10
2018-06-15T04:22:05.329Z,3.90
2018-06-15T04:25:09.795Z,5.77
2018-06-15T04:28:14.313Z,7.63
2018-06-15T04:31:18.658Z,4.67
2018-06-15T04:34:22.809Z,4.97
2018-06-15T04:37:27.346Z,4.50
2018-06-15T04:40:31.594Z,7.37
2018-06-15T04:43:35.980Z,4.47
2018-06-15T04:46:40.209Z,5.23
2018-06-15T04:49:44.466Z,3.83
2018-06-15T04:52:48.874Z,4.63
2018-06-15T04:55:53.182Z,4.60
2018-06-15T04:58:57.318Z,4.03
2018-06-15T05:02:01.684Z,4.10
2018-06-15T05:05:06.275Z,4.93
2018-06-15T05:08:10.558Z,4.70
2018-06-15T05:11:14.837Z,4.60
2018-06-15T05:14:19.154Z,4.10
2018-06-15T05:17:23.535Z,4.27
2018-06-15T05:20:27.930Z,3.83
2018-06-15T05:23:32.284Z,3.60
2018-06-15T05:26:36.648Z,4.23
2018-06-15T05:29:40.818Z,4.47
2018-06-15T05:32:45.528Z,5.13
2018-06-15T05:35:49.835Z,4.57
2018-06-15T05:38:54.057Z,3.83
2018-06-15T05:41:58.420Z,5.40
2018-06-15T05:45:02.974Z,5.63
2018-06-15T05:48:08.090Z,4.37
2018-06-15T05:51:12.851Z,4.33
2018-06-15T05:54:17.043Z,4.10
2018-06-15T05:57:21.418Z,5.10
2018-06-15T06:00:27.513Z,4.37
2018-06-15T06:03:31.795Z,5.07
2018-06-15T06:06:36.210Z,5.73
2018-06-15T06:09:40.373Z,6.13
2018-06-15T06:12:44.623Z,5.23
2018-06-15T06:15:49.011Z,8.27
2018-06-15T06:18:52.886Z,5.30
2018-06-15T06:21:57.195Z,4.97
2018-06-15T06:25:01.462Z,4.47
2018-06-15T06:28:05.786Z,3.93
2018-06-15T06:31:10.307Z,6.40
2018-06-15T06:34:14.608Z,5.63
2018-06-15T06:37:18.914Z,4.40
2018-06-15T06:40:23.217Z,4.87
2018-06-15T06:43:27.567Z,3.97
2018-06-15T06:46:31.935Z,3.67
2018-06-15T06:49:36.312Z,3.83
2018-06-15T06:52:41.054Z,4.50
2018-06-15T06:55:45.588Z,4.03
2018-06-15T06:58:49.846Z,3.67
2018-06-15T07:01:54.171Z,4.50
2018-06-15T07:04:58.502Z,4.23
2018-06-15T07:08:02.968Z,6.67
2018-06-15T07:11:07.303Z,4.60
2018-06-15T07:14:11.530Z,4.40
2018-06-15T07:17:15.843Z,4.37
2018-06-15T07:20:20.015Z,4.73
2018-06-15T07:23:24.105Z,5.10
2018-06-15T07:26:28.358Z,4.43
2018-06-15T07:29:32.888Z,5.03
2018-06-15T07:32:37.341Z,4.00
2018-06-15T07:35:41.670Z,4.23
2018-06-15T07:38:46.011Z,5.53
2018-06-15T07:41:50.366Z,4.07
2018-06-15T07:44:54.846Z,4.60
2018-06-15T07:47:58.951Z,4.73
2018-06-15T07:51:03.291Z,4.60
2018-06-15T07:54:07.600Z,4.50
2018-06-15T07:57:11.943Z,3.97
2018-06-15T08:00:15.896Z,4.80
2018-06-15T08:03:20.526Z,4.80
2018-06-15T08:09:52.324Z,5.57
2018-06-15T08:12:56.899Z,4.40
2018-06-15T08:16:01.107Z,4.33
2018-06-15T08:19:05.929Z,5.03
2018-06-15T08:22:10.250Z,5.17
2018-06-15T08:25:14.835Z,5.83
2018-06-15T08:28:19.073Z,5.23
2018-06-15T08:31:23.424Z,4.67
2018-06-15T08:34:27.635Z,6.53
2018-06-15T08:37:31.735Z,5.90
2018-06-15T08:40:36.294Z,4.77
2018-06-15T08:43:41.816Z,5.10
2018-06-15T08:46:46.213Z,4.53
2018-06-15T08:49:50.684Z,4.63
2018-06-15T08:52:54.918Z,5.23
2018-06-15T08:55:59.103Z,4.97
2018-06-15T08:59:03.550Z,4.70
2018-06-15T09:02:08.523Z,5.13
2018-06-15T09:05:13.062Z,4.13
2018-06-15T09:08:17.296Z,4.77
2018-06-15T09:11:21.736Z,4.20
2018-06-15T09:14:26.652Z,4.73
2018-06-15T09:17:30.951Z,4.90
2018-06-15T09:20:35.927Z,4.90
2018-06-15T09:23:40.302Z,4.40
2018-06-15T09:26:44.234Z,5.27
2018-06-15T09:29:48.587Z,4.87
2018-06-15T09:32:52.930Z,4.97
2018-06-15T09:35:57.331Z,4.37
2018-06-15T09:39:01.888Z,4.20
2018-06-15T09:42:06.250Z,5.87
2018-06-15T09:45:10.512Z,5.40
2018-06-15T09:48:14.793Z,3.77
2018-06-15T09:51:19.269Z,4.30
2018-06-15T09:54:23.419Z,4.10
2018-06-15T09:57:27.625Z,4.27
2018-06-15T10:00:36.975Z,5.60
2018-06-15T10:03:41.473Z,4.33
2018-06-15T10:06:45.816Z,3.97
2018-06-15T10:09:50.320Z,4.00
2018-06-15T10:12:54.453Z,4.67
2018-06-15T10:15:58.800Z,4.90
2018-06-15T10:19:03.245Z,4.30
2018-06-15T10:22:07.702Z,4.10
2018-06-15T10:25:12.119Z,3.97
2018-06-15T10:28:16.354Z,3.50
2018-06-15T10:31:20.650Z,4.00
2018-06-15T10:34:24.917Z,4.30
2018-06-15T10:37:29.366Z,4.00
2018-06-15T10:40:33.688Z,4.47
2018-06-15T10:43:37.974Z,4.27
2018-06-15T10:46:42.218Z,5.40
2018-06-15T10:49:46.160Z,4.30
2018-06-15T10:52:50.556Z,4.90
2018-06-15T10:55:54.853Z,3.93
2018-06-15T10:58:59.426Z,7.00
2018-06-15T11:02:03.834Z,4.00
2018-06-15T11:05:08.278Z,4.20
2018-06-15T11:08:12.630Z,4.07
2018-06-15T11:11:17.486Z,4.93
2018-06-15T11:14:21.884Z,4.60
2018-06-15T11:17:26.063Z,4.20
2018-06-15T11:20:30.605Z,4.80
2018-06-15T11:23:35.099Z,4.83
2018-06-15T11:26:39.226Z,4.33
2018-06-15T11:29:43.409Z,5.07
2018-06-15T11:32:47.798Z,4.63
2018-06-15T11:35:52.205Z,4.90
2018-06-15T11:38:57.433Z,4.50
2018-06-15T11:42:01.800Z,4.80
2018-06-15T11:45:06.147Z,4.23
2018-06-15T11:48:10.635Z,4.60
2018-06-15T11:51:15.045Z,4.87
2018-06-15T11:54:19.461Z,4.03
2018-06-15T11:57:23.765Z,4.37
2018-06-15T12:00:28.940Z,5.07
2018-06-15T12:03:33.358Z,4.87
2018-06-15T12:06:37.644Z,4.90
2018-06-15T12:09:41.942Z,4.87
2018-06-15T12:12:47.269Z,4.33
2018-06-15T12:15:51.880Z,4.53
2018-06-15T12:18:56.304Z,4.93
2018-06-15T12:22:00.599Z,4.83
2018-06-15T12:25:05.122Z,4.37
2018-06-15T12:28:09.306Z,5.40
2018-06-15T12:31:13.864Z,5.00
2018-06-15T12:34:18.376Z,5.40
2018-06-15T12:37:22.647Z,4.50
2018-06-15T12:40:27.441Z,4.70
2018-06-15T12:43:31.659Z,4.43
2018-06-15T12:46:36.099Z,8.07
2018-06-15T12:49:40.330Z,4.30
2018-06-15T12:52:44.578Z,4.30
2018-06-15T12:55:49.282Z,5.10
2018-06-15T12:58:53.539Z,4.57
2018-06-15T13:01:57.956Z,5.33
2018-06-15T13:05:02.293Z,4.87
2018-06-15T13:08:06.465Z,4.37
2018-06-15T13:11:10.793Z,5.90
2018-06-15T13:14:15.167Z,5.70
2018-06-15T13:17:19.626Z,5.10
2018-06-15T13:20:23.822Z,4.47
2018-06-15T13:23:28.034Z,4.87
2018-06-15T13:26:32.334Z,5.23
2018-06-15T13:29:36.685Z,4.37
2018-06-15T13:32:40.922Z,5.17
2018-06-15T13:35:45.240Z,5.70
2018-06-15T13:38:49.650Z,5.20
2018-06-15T13:41:54.988Z,4.90
2018-06-15T13:44:59.474Z,5.53
2018-06-15T13:48:03.522Z,5.10
2018-06-15T13:51:08.038Z,4.23
2018-06-15T13:54:13.412Z,4.70
2018-06-15T13:57:17.937Z,4.53
2018-06-15T14:00:22.303Z,5.00
2018-06-15T14:03:26.706Z,5.93
2018-06-15T14:06:31.031Z,4.50
2018-06-15T14:09:35.775Z,5.50
2018-06-15T14:12:40.099Z,5.60
2018-06-15T14:15:44.425Z,6.47
2018-06-15T14:18:48.644Z,8.57
2018-06-15T14:21:52.958Z,5.80
2018-06-15T14:24:57.276Z,5.90
2018-06-15T14:28:01.559Z,5.20
2018-06-15T14:31:06.074Z,5.40
2018-06-15T14:34:11.318Z,5.57
2018-06-15T14:37:15.835Z,6.13
2018-06-15T14:40:20.283Z,5.67
2018-06-15T14:43:24.668Z,9.60
2018-06-15T14:46:29.054Z,6.67
2018-06-15T14:49:33.463Z,5.93
2018-06-15T14:52:37.854Z,5.80
2018-06-15T14:55:42.275Z,5.87
2018-06-15T14:58:46.531Z,7.83
2018-06-15T15:01:51.010Z,7.70
2018-06-15T15:04:55.518Z,5.60
2018-06-15T15:07:59.872Z,5.13
2018-06-15T15:11:04.381Z,5.93
2018-06-15T15:14:08.939Z,5.57
2018-06-15T15:17:13.353Z,5.10
2018-06-15T15:20:17.507Z,6.10
2018-06-15T15:23:21.735Z,5.20
2018-06-15T15:26:27.084Z,5.00
2018-06-15T15:29:31.162Z,5.63
2018-06-15T15:32:35.466Z,5.03
2018-06-15T15:35:39.995Z,5.50
2018-06-15T15:38:44.663Z,5.53
2018-06-15T15:41:48.989Z,4.50
2018-06-15T15:44:53.413Z,5.50
2018-06-15T15:47:57.748Z,4.90
2018-06-15T15:51:03.020Z,4.33
2018-06-15T15:54:07.326Z,4.70
2018-06-15T15:57:17.806Z,6.20
2018-06-15T16:00:22.113Z,5.53
2018-06-15T16:03:26.286Z,4.43
2018-06-15T16:06:30.806Z,4.90
2018-06-15T16:09:35.244Z,5.73
2018-06-15T16:12:39.593Z,5.13
2018-06-15T16:15:43.919Z,5.03
2018-06-15T16:18:48.238Z,5.00
2018-06-15T16:21:52.450Z,5.40
2018-06-15T16:24:56.767Z,6.00
2018-06-15T16:28:01.191Z,4.60
2018-06-15T16:31:05.594Z,4.73
2018-06-15T16:34:09.959Z,5.97
2018-06-15T16:37:14.416Z,5.27
2018-06-15T16:40:19.077Z,9.80
2018-06-15T16:43:24.724Z,5.07
2018-06-15T16:46:29.177Z,5.20
2018-06-15T16:49:33.574Z,6.93
2018-06-15T16:52:37.959Z,5.10
2018-06-15T16:55:42.491Z,5.43
2018-06-15T16:58:46.695Z,4.90
2018-06-15T17:01:51.052Z,4.87
2018-06-15T17:04:54.923Z,5.70
2018-06-15T17:07:58.839Z,5.10
2018-06-15T17:11:02.731Z,5.23
2018-06-15T17:14:07.306Z,4.37
2018-06-15T17:17:11.680Z,4.90
2018-06-15T17:20:15.844Z,6.30
2018-06-15T17:23:20.383Z,4.90
2018-06-15T17:26:24.491Z,5.50
2018-06-15T17:29:28.915Z,5.03
2018-06-15T17:32:33.381Z,5.93
2018-06-15T17:35:37.830Z,6.67
2018-06-15T17:38:48.977Z,6.70
2018-06-15T17:41:53.407Z,5.10
2018-06-15T17:44:57.783Z,5.33
2018-06-15T17:48:01.960Z,4.73
2018-06-15T17:51:06.435Z,5.87
2018-06-15T17:54:10.581Z,5.50
2018-06-15T17:57:15.009Z,5.20
2018-06-15T18:00:19.699Z,5.00
2018-06-15T18:03:24.008Z,5.13
2018-06-15T18:06:28.339Z,4.90
2018-06-15T18:09:32.591Z,4.73
2018-06-15T18:12:36.982Z,4.93
2018-06-15T18:15:41.289Z,4.67
2018-06-15T18:18:45.574Z,5.73
2018-06-15T18:21:49.938Z,5.60
2018-06-15T18:24:54.395Z,5.40
2018-06-15T18:27:58.059Z,7.07
2018-06-15T18:31:02.540Z,5.27
2018-06-15T18:34:06.841Z,5.87
2018-06-15T18:37:11.101Z,6.43
2018-06-15T18:40:15.443Z,6.43
2018-06-15T18:43:19.714Z,6.03
2018-06-15T18:46:23.910Z,5.70
2018-06-15T18:49:28.105Z,7.20
2018-06-15T18:52:32.487Z,4.70
2018-06-15T18:55:37.144Z,6.00
2018-06-15T18:58:41.746Z,5.83
2018-06-15T19:01:45.438Z,6.07
2018-06-15T19:04:49.745Z,6.07
2018-06-15T19:07:54.767Z,5.47
2018-06-15T19:10:59.142Z,5.63
2018-06-15T19:14:03.329Z,7.13
2018-06-15T19:17:07.597Z,8.87
2018-06-15T19:20:12.099Z,6.63
2018-06-15T19:23:16.635Z,6.57
2018-06-15T19:26:20.712Z,6.67
2018-06-15T19:29:25.100Z,6.53
2018-06-15T19:32:29.341Z,6.23
2018-06-15T19:35:33.681Z,7.30
2018-06-15T19:38:38.160Z,6.03
2018-06-15T19:41:42.688Z,7.00
2018-06-15T19:44:47.063Z,7.00
2018-06-15T19:47:51.512Z,5.30
2018-06-15T19:50:55.951Z,7.47
2018-06-15T19:54:00.053Z,6.90
2018-06-15T19:57:04.536Z,6.33
2018-06-15T20:00:08.864Z,8.33
2018-06-15T20:03:13.027Z,7.73
2018-06-15T20:06:17.417Z,6.97
2018-06-15T20:09:21.737Z,8.20
2018-06-15T20:12:26.056Z,7.33
2018-06-15T20:15:30.284Z,7.70
2018-06-15T20:18:34.615Z,8.03
2018-06-15T20:21:39.520Z,8.20
2018-06-15T20:24:43.953Z,9.03
2018-06-15T20:27:48.633Z,7.70
2018-06-15T20:30:53.365Z,7.70
2018-06-15T20:33:58.079Z,8.17
2018-06-15T20:37:02.289Z,7.53
2018-06-15T20:40:06.762Z,7.70
2018-06-15T20:43:11.291Z,8.20
2018-06-15T20:46:15.618Z,8.23
2018-06-15T20:49:20.001Z,7.13
2018-06-15T20:52:24.426Z,7.30
2018-06-15T20:55:28.711Z,7.53
2018-06-15T20:58:33.189Z,8.70
2018-06-15T21:01:38.984Z,7.70
2018-06-15T21:04:43.388Z,6.90
2018-06-15T21:07:48.285Z,8.27
2018-06-15T21:10:52.604Z,7.87
2018-06-15T21:13:57.004Z,8.07
2018-06-15T21:17:01.330Z,7.80
2018-06-15T21:20:05.938Z,7.30
2018-06-15T21:23:10.184Z,7.50
2018-06-15T21:26:14.531Z,8.23
2018-06-15T21:29:21.000Z,10.13
2018-06-15T21:32:25.206Z,7.10
2018-06-15T21:35:29.095Z,7.13
2018-06-15T21:38:34.743Z,8.73
2018-06-15T21:41:38.637Z,7.23
2018-06-15T21:44:43.003Z,6.90
2018-06-15T21:47:47.915Z,8.60
2018-06-15T21:50:53.173Z,7.97
2018-06-15T21:53:57.630Z,9.33
2018-06-15T21:57:01.863Z,7.40
2018-06-15T22:00:07.803Z,9.17
2018-06-15T22:03:11.883Z,8.10
2018-06-15T22:06:16.249Z,6.70
2018-06-15T22:09:20.536Z,8.97
2018-06-15T22:12:24.886Z,7.00
2018-06-15T22:15:29.193Z,8.57
2018-06-15T22:18:33.722Z,8.07
2018-06-15T22:21:38.079Z,7.70
2018-06-15T22:24:42.409Z,8.17
2018-06-15T22:27:46.680Z,8.30
2018-06-15T22:30:51.013Z,8.90
2018-06-15T22:33:55.187Z,8.10
2018-06-15T22:36:59.428Z,7.80
2018-06-15T22:40:03.728Z,7.37
2018-06-15T22:43:07.918Z,7.30
2018-06-15T22:46:12.230Z,8.40
2018-06-15T22:49:16.585Z,8.13
2018-06-15T22:52:21.374Z,7.70
2018-06-15T22:55:25.676Z,6.10
2018-06-15T22:58:30.033Z,7.70
2018-06-15T23:01:34.451Z,8.20
2018-06-15T23:04:38.637Z,7.43
2018-06-15T23:07:43.083Z,8.47
2018-06-15T23:10:47.404Z,8.17
2018-06-15T23:13:51.730Z,8.63
2018-06-15T23:16:55.942Z,8.30
2018-06-15T23:20:00.369Z,8.43
2018-06-15T23:23:04.711Z,9.53
2018-06-15T23:26:09.323Z,7.10
2018-06-15T23:29:13.765Z,7.87
2018-06-15T23:32:18.051Z,8.40
2018-06-15T23:35:22.465Z,7.10
2018-06-15T23:38:26.802Z,8.17
2018-06-15T23:41:31.129Z,6.40
2018-06-15T23:44:35.545Z,7.47
2018-06-15T23:47:39.981Z,7.20
2018-06-15T23:50:44.217Z,8.20
2018-06-15T23:53:48.526Z,8.00
2018-06-15T23:56:52.822Z,8.47
2018-06-15T23:59:57.205Z,7.60
